sensor_id;sensor_type;location;lat;lon;timestamp;temperature;humidity
20370;DHT22;10344;47.592;9.600;2023-04-24T00:02:16;11.00;99.90
20370;DHT22;10344;47.592;9.600;2023-04-24T00:04:44;10.90;99.90
20370;DHT22;10344;47.592;9.600;2023-04-24T00:07:14;10.90;99.90
20370;DHT22;10344;47.592;9.600;2023-04-24T00:09:44;10.90;99.90
20370;DHT22;10344;47.592;9.600;2023-04-24T00:12:09;10.80;99.90
20370;DHT22;10344;47.592;9.600;2023-04-24T00:14:40;10.90;99.90
20370;DHT22;10344;47.592;9.600;2023-04-24T00:17:08;10.90;99.90
20370;DHT22;10344;47.592;9.600;2023-04-24T00:19:36;10.80;99.90
20370;DHT22;10344;47.592;9.600;2023-04-24T00:22:06;10.80;99.90
20370;DHT22;10344;47.592;9.600;2023-04-24T00:24:39;10.80;99.90
20370;DHT22;10344;47.592;9.600;2023-04-24T00:27:04;10.90;99.90
20370;DHT22;10344;47.592;9.600;2023-04-24T00:29:30;10.80;99.90
20370;DHT22;10344;47.592;9.600;2023-04-24T00:31:58;10.80;99.90
20370;DHT22;10344;47.592;9.600;2023-04-24T00:34:24;10.80;99.90
20370;DHT22;10344;47.592;9.600;2023-04-24T00:36:57;10.80;99.90
20370;DHT22;10344;47.592;9.600;2023-04-24T00:39:26;10.80;99.90
20370;DHT22;10344;47.592;9.600;2023-04-24T00:41:51;10.80;99.90
20370;DHT22;10344;47.592;9.600;2023-04-24T00:44:18;10.70;99.90
20370;DHT22;10344;47.592;9.600;2023-04-24T00:46:49;10.70;99.90
20370;DHT22;10344;47.592;9.600;2023-04-24T00:49:20;10.60;99.90
20370;DHT22;10344;47.592;9.600;2023-04-24T00:51:48;10.60;99.90
20370;DHT22;10344;47.592;9.600;2023-04-24T00:54:15;10.60;99.90
20370;DHT22;10344;47.592;9.600;2023-04-24T00:56:42;10.50;99.90
20370;DHT22;10344;47.592;9.600;2023-04-24T00:59:13;10.60;99.90
20370;DHT22;10344;47.592;9.600;2023-04-24T01:01:39;10.60;99.90
20370;DHT22;10344;47.592;9.600;2023-04-24T01:04:07;10.50;99.90
20370;DHT22;10344;47.592;9.600;2023-04-24T01:06:33;10.50;99.90
20370;DHT22;10344;47.592;9.600;2023-04-24T01:09:00;10.50;99.90
20370;DHT22;10344;47.592;9.600;2023-04-24T01:11:26;10.50;99.90
20370;DHT22;10344;47.592;9.600;2023-04-24T01:13:52;10.60;99.90
20370;DHT22;10344;47.592;9.600;2023-04-24T01:16:19;10.70;99.90
20370;DHT22;10344;47.592;9.600;2023-04-24T01:18:46;10.80;99.90
20370;DHT22;10344;47.592;9.600;2023-04-24T01:21:15;10.70;99.90
20370;DHT22;10344;47.592;9.600;2023-04-24T01:23:43;10.70;99.90
20370;DHT22;10344;47.592;9.600;2023-04-24T01:26:09;10.70;99.90
20370;DHT22;10344;47.592;9.600;2023-04-24T01:28:35;10.80;99.90
20370;DHT22;10344;47.592;9.600;2023-04-24T01:31:01;10.80;99.90
20370;DHT22;10344;47.592;9.600;2023-04-24T01:33:26;10.80;99.90
20370;DHT22;10344;47.592;9.600;2023-04-24T01:35:57;10.80;99.90
20370;DHT22;10344;47.592;9.600;2023-04-24T01:38:25;10.70;99.90
20370;DHT22;10344;47.592;9.600;2023-04-24T01:40:55;10.70;99.90
20370;DHT22;10344;47.592;9.600;2023-04-24T01:43:21;10.70;99.90
20370;DHT22;10344;47.592;9.600;2023-04-24T01:45:47;10.60;99.90
20370;DHT22;10344;47.592;9.600;2023-04-24T01:48:13;10.60;99.90
20370;DHT22;10344;47.592;9.600;2023-04-24T01:50:42;10.60;99.90
20370;DHT22;10344;47.592;9.600;2023-04-24T01:53:07;10.50;99.90
20370;DHT22;10344;47.592;9.600;2023-04-24T01:55:33;10.50;99.90
20370;DHT22;10344;47.592;9.600;2023-04-24T01:58:02;10.40;99.90
20370;DHT22;10344;47.592;9.600;2023-04-24T02:00:28;10.50;99.90
20370;DHT22;10344;47.592;9.600;2023-04-24T02:02:53;10.50;99.90
20370;DHT22;10344;47.592;9.600;2023-04-24T02:05:19;10.60;99.90
20370;DHT22;10344;47.592;9.600;2023-04-24T02:07:47;10.60;99.90
20370;DHT22;10344;47.592;9.600;2023-04-24T02:10:13;10.60;99.90
20370;DHT22;10344;47.592;9.600;2023-04-24T02:12:41;10.60;99.90
20370;DHT22;10344;47.592;9.600;2023-04-24T02:15:06;10.50;99.90
20370;DHT22;10344;47.592;9.600;2023-04-24T02:17:34;10.50;99.90
20370;DHT22;10344;47.592;9.600;2023-04-24T02:20:00;10.40;99.90
20370;DHT22;10344;47.592;9.600;2023-04-24T02:22:26;10.50;99.90
20370;DHT22;10344;47.592;9.600;2023-04-24T02:24:54;10.50;99.90
20370;DHT22;10344;47.592;9.600;2023-04-24T02:27:21;10.50;99.90
20370;DHT22;10344;47.592;9.600;2023-04-24T02:29:47;10.40;99.90
20370;DHT22;10344;47.592;9.600;2023-04-24T02:32:13;10.40;99.90
20370;DHT22;10344;47.592;9.600;2023-04-24T02:34:40;10.40;99.90
20370;DHT22;10344;47.592;9.600;2023-04-24T02:37:08;10.40;99.90
20370;DHT22;10344;47.592;9.600;2023-04-24T02:39:36;10.40;99.90
20370;DHT22;10344;47.592;9.600;2023-04-24T02:42:02;10.40;99.90
20370;DHT22;10344;47.592;9.600;2023-04-24T02:44:30;10.40;99.90
20370;DHT22;10344;47.592;9.600;2023-04-24T02:46:56;10.40;99.90
20370;DHT22;10344;47.592;9.600;2023-04-24T02:49:21;10.30;99.90
20370;DHT22;10344;47.592;9.600;2023-04-24T02:51:47;10.40;99.90
20370;DHT22;10344;47.592;9.600;2023-04-24T02:54:13;10.40;99.90
20370;DHT22;10344;47.592;9.600;2023-04-24T02:56:40;10.40;99.90
20370;DHT22;10344;47.592;9.600;2023-04-24T02:59:08;10.40;99.90
20370;DHT22;10344;47.592;9.600;2023-04-24T03:01:35;10.40;99.90
20370;DHT22;10344;47.592;9.600;2023-04-24T03:04:03;10.40;99.90
20370;DHT22;10344;47.592;9.600;2023-04-24T03:06:29;10.40;99.90
20370;DHT22;10344;47.592;9.600;2023-04-24T03:08:56;10.40;99.90
20370;DHT22;10344;47.592;9.600;2023-04-24T03:11:24;10.40;99.90
20370;DHT22;10344;47.592;9.600;2023-04-24T03:13:50;10.50;99.90
20370;DHT22;10344;47.592;9.600;2023-04-24T03:16:16;10.50;99.90
20370;DHT22;10344;47.592;9.600;2023-04-24T03:18:41;10.50;99.90
20370;DHT22;10344;47.592;9.600;2023-04-24T03:21:09;10.50;99.90
20370;DHT22;10344;47.592;9.600;2023-04-24T03:23:35;10.50;99.90
20370;DHT22;10344;47.592;9.600;2023-04-24T03:26:00;10.50;99.90
20370;DHT22;10344;47.592;9.600;2023-04-24T03:28:27;10.50;99.90
20370;DHT22;10344;47.592;9.600;2023-04-24T03:30:57;10.40;99.90
20370;DHT22;10344;47.592;9.600;2023-04-24T03:33:23;10.40;99.90
20370;DHT22;10344;47.592;9.600;2023-04-24T03:35:49;10.40;99.90
20370;DHT22;10344;47.592;9.600;2023-04-24T03:38:14;10.30;99.90
20370;DHT22;10344;47.592;9.600;2023-04-24T03:40:40;10.30;99.90
20370;DHT22;10344;47.592;9.600;2023-04-24T03:43:08;10.30;99.90
20370;DHT22;10344;47.592;9.600;2023-04-24T03:45:34;10.30;99.90
20370;DHT22;10344;47.592;9.600;2023-04-24T03:47:59;10.20;99.90
20370;DHT22;10344;47.592;9.600;2023-04-24T03:50:25;10.30;99.90
20370;DHT22;10344;47.592;9.600;2023-04-24T03:52:52;10.20;99.90
20370;DHT22;10344;47.592;9.600;2023-04-24T03:55:17;10.20;99.90
20370;DHT22;10344;47.592;9.600;2023-04-24T03:57:45;10.20;99.90
20370;DHT22;10344;47.592;9.600;2023-04-24T04:00:11;10.30;99.90
20370;DHT22;10344;47.592;9.600;2023-04-24T04:02:37;10.20;99.90
20370;DHT22;10344;47.592;9.600;2023-04-24T04:05:03;10.10;99.90
20370;DHT22;10344;47.592;9.600;2023-04-24T04:07:29;10.10;99.90
20370;DHT22;10344;47.592;9.600;2023-04-24T04:09:57;10.10;99.90
20370;DHT22;10344;47.592;9.600;2023-04-24T04:12:23;10.00;99.90
20370;DHT22;10344;47.592;9.600;2023-04-24T04:14:48;10.00;99.90
20370;DHT22;10344;47.592;9.600;2023-04-24T04:17:16;10.10;99.90
20370;DHT22;10344;47.592;9.600;2023-04-24T04:19:43;10.10;99.90
20370;DHT22;10344;47.592;9.600;2023-04-24T04:22:11;10.10;99.90
20370;DHT22;10344;47.592;9.600;2023-04-24T04:24:36;10.10;99.90
20370;DHT22;10344;47.592;9.600;2023-04-24T04:27:04;10.10;99.90
20370;DHT22;10344;47.592;9.600;2023-04-24T04:29:33;10.00;99.90
20370;DHT22;10344;47.592;9.600;2023-04-24T04:31:59;10.00;99.90
20370;DHT22;10344;47.592;9.600;2023-04-24T04:34:25;10.00;99.90
20370;DHT22;10344;47.592;9.600;2023-04-24T04:36:54;10.00;99.90
20370;DHT22;10344;47.592;9.600;2023-04-24T04:39:22;10.00;99.90
20370;DHT22;10344;47.592;9.600;2023-04-24T04:41:50;10.00;99.90
20370;DHT22;10344;47.592;9.600;2023-04-24T04:44:16;9.90;99.90
20370;DHT22;10344;47.592;9.600;2023-04-24T04:46:41;10.00;99.90
20370;DHT22;10344;47.592;9.600;2023-04-24T04:49:07;10.00;99.90
20370;DHT22;10344;47.592;9.600;2023-04-24T04:51:38;9.90;99.90
20370;DHT22;10344;47.592;9.600;2023-04-24T04:54:06;10.00;99.90
20370;DHT22;10344;47.592;9.600;2023-04-24T04:56:31;10.00;99.90
20370;DHT22;10344;47.592;9.600;2023-04-24T04:59:00;9.90;99.90
20370;DHT22;10344;47.592;9.600;2023-04-24T05:01:25;10.00;99.90
20370;DHT22;10344;47.592;9.600;2023-04-24T05:03:53;10.00;99.90
20370;DHT22;10344;47.592;9.600;2023-04-24T05:06:21;9.90;99.90
20370;DHT22;10344;47.592;9.600;2023-04-24T05:08:47;9.90;99.90
20370;DHT22;10344;47.592;9.600;2023-04-24T05:11:15;9.90;99.90
20370;DHT22;10344;47.592;9.600;2023-04-24T05:13:40;10.00;99.90
20370;DHT22;10344;47.592;9.600;2023-04-24T05:16:08;10.30;99.90
20370;DHT22;10344;47.592;9.600;2023-04-24T05:18:37;10.30;99.90
20370;DHT22;10344;47.592;9.600;2023-04-24T05:21:02;10.30;99.90
20370;DHT22;10344;47.592;9.600;2023-04-24T05:23:30;10.40;99.90
20370;DHT22;10344;47.592;9.600;2023-04-24T05:25:56;10.50;99.90
20370;DHT22;10344;47.592;9.600;2023-04-24T05:28:24;10.50;99.90
20370;DHT22;10344;47.592;9.600;2023-04-24T05:30:54;10.50;99.90
20370;DHT22;10344;47.592;9.600;2023-04-24T05:33:20;10.50;99.90
20370;DHT22;10344;47.592;9.600;2023-04-24T05:35:46;10.50;99.90
20370;DHT22;10344;47.592;9.600;2023-04-24T05:38:12;10.40;99.90
20370;DHT22;10344;47.592;9.600;2023-04-24T05:40:39;10.50;99.90
20370;DHT22;10344;47.592;9.600;2023-04-24T05:43:06;10.50;99.90
20370;DHT22;10344;47.592;9.600;2023-04-24T05:45:34;10.50;99.90
20370;DHT22;10344;47.592;9.600;2023-04-24T05:48:02;10.50;99.90
20370;DHT22;10344;47.592;9.600;2023-04-24T05:50:30;10.50;99.90
20370;DHT22;10344;47.592;9.600;2023-04-24T05:53:00;10.60;99.90
20370;DHT22;10344;47.592;9.600;2023-04-24T05:55:30;10.70;99.90
20370;DHT22;10344;47.592;9.600;2023-04-24T05:57:56;10.80;99.90
20370;DHT22;10344;47.592;9.600;2023-04-24T06:00:21;10.70;99.90
20370;DHT22;10344;47.592;9.600;2023-04-24T06:02:47;10.80;99.90
20370;DHT22;10344;47.592;9.600;2023-04-24T06:05:13;10.70;99.90
20370;DHT22;10344;47.592;9.600;2023-04-24T06:07:38;10.70;99.90
20370;DHT22;10344;47.592;9.600;2023-04-24T06:10:04;10.80;99.90
20370;DHT22;10344;47.592;9.600;2023-04-24T06:12:32;10.70;99.90
20370;DHT22;10344;47.592;9.600;2023-04-24T06:15:02;10.60;99.90
20370;DHT22;10344;47.592;9.600;2023-04-24T06:17:31;10.60;99.90
20370;DHT22;10344;47.592;9.600;2023-04-24T06:19:58;10.50;99.90
20370;DHT22;10344;47.592;9.600;2023-04-24T06:22:24;10.50;99.90
20370;DHT22;10344;47.592;9.600;2023-04-24T06:24:49;10.40;99.90
20370;DHT22;10344;47.592;9.600;2023-04-24T06:27:18;10.30;99.90
20370;DHT22;10344;47.592;9.600;2023-04-24T06:29:43;10.30;99.90
20370;DHT22;10344;47.592;9.600;2023-04-24T06:32:09;10.30;99.90
20370;DHT22;10344;47.592;9.600;2023-04-24T06:34:34;10.20;99.90
20370;DHT22;10344;47.592;9.600;2023-04-24T06:37:03;10.30;99.90
20370;DHT22;10344;47.592;9.600;2023-04-24T06:39:28;10.30;99.90
20370;DHT22;10344;47.592;9.600;2023-04-24T06:41:54;10.50;99.90
20370;DHT22;10344;47.592;9.600;2023-04-24T06:44:20;10.50;99.90
20370;DHT22;10344;47.592;9.600;2023-04-24T06:46:48;10.60;99.90
20370;DHT22;10344;47.592;9.600;2023-04-24T06:49:13;10.80;99.90
20370;DHT22;10344;47.592;9.600;2023-04-24T06:51:41;10.90;99.90
20370;DHT22;10344;47.592;9.600;2023-04-24T06:54:06;11.00;99.90
20370;DHT22;10344;47.592;9.600;2023-04-24T06:56:32;11.00;99.90
20370;DHT22;10344;47.592;9.600;2023-04-24T06:59:04;11.00;99.90
20370;DHT22;10344;47.592;9.600;2023-04-24T07:01:30;11.00;99.90
20370;DHT22;10344;47.592;9.600;2023-04-24T07:03:55;10.90;99.90
20370;DHT22;10344;47.592;9.600;2023-04-24T07:06:21;10.80;99.90
20370;DHT22;10344;47.592;9.600;2023-04-24T07:08:48;10.80;99.90
20370;DHT22;10344;47.592;9.600;2023-04-24T07:11:21;10.80;99.90
20370;DHT22;10344;47.592;9.600;2023-04-24T07:13:47;10.80;99.90
20370;DHT22;10344;47.592;9.600;2023-04-24T07:16:13;11.00;99.90
20370;DHT22;10344;47.592;9.600;2023-04-24T07:18:38;11.10;99.90
20370;DHT22;10344;47.592;9.600;2023-04-24T07:21:06;11.30;99.90
20370;DHT22;10344;47.592;9.600;2023-04-24T07:23:32;11.40;99.90
20370;DHT22;10344;47.592;9.600;2023-04-24T07:25:58;11.50;99.90
20370;DHT22;10344;47.592;9.600;2023-04-24T07:28:23;11.60;99.90
20370;DHT22;10344;47.592;9.600;2023-04-24T07:30:50;11.70;99.90
20370;DHT22;10344;47.592;9.600;2023-04-24T07:33:15;11.90;99.90
20370;DHT22;10344;47.592;9.600;2023-04-24T07:35:41;12.10;99.90
20370;DHT22;10344;47.592;9.600;2023-04-24T07:38:09;12.30;99.90
20370;DHT22;10344;47.592;9.600;2023-04-24T07:40:37;12.20;99.90
20370;DHT22;10344;47.592;9.600;2023-04-24T07:43:03;12.20;99.90
20370;DHT22;10344;47.592;9.600;2023-04-24T07:45:31;12.10;99.90
20370;DHT22;10344;47.592;9.600;2023-04-24T07:48:01;12.10;99.90
20370;DHT22;10344;47.592;9.600;2023-04-24T07:50:28;12.20;99.90
20370;DHT22;10344;47.592;9.600;2023-04-24T07:52:56;12.20;99.90
20370;DHT22;10344;47.592;9.600;2023-04-24T07:55:22;12.20;99.90
20370;DHT22;10344;47.592;9.600;2023-04-24T07:57:51;12.10;99.90
20370;DHT22;10344;47.592;9.600;2023-04-24T08:00:17;12.10;99.90
20370;DHT22;10344;47.592;9.600;2023-04-24T08:02:45;12.50;99.90
20370;DHT22;10344;47.592;9.600;2023-04-24T08:05:10;13.20;99.90
20370;DHT22;10344;47.592;9.600;2023-04-24T08:07:40;14.40;99.90
20370;DHT22;10344;47.592;9.600;2023-04-24T08:10:10;15.10;99.90
20370;DHT22;10344;47.592;9.600;2023-04-24T08:12:38;15.70;99.90
20370;DHT22;10344;47.592;9.600;2023-04-24T08:15:06;17.00;99.90
20370;DHT22;10344;47.592;9.600;2023-04-24T08:17:33;17.90;99.90
20370;DHT22;10344;47.592;9.600;2023-04-24T08:19:59;18.30;99.90
20370;DHT22;10344;47.592;9.600;2023-04-24T08:22:27;18.40;99.90
20370;DHT22;10344;47.592;9.600;2023-04-24T08:24:54;17.70;99.90
20370;DHT22;10344;47.592;9.600;2023-04-24T08:27:19;17.30;99.90
20370;DHT22;10344;47.592;9.600;2023-04-24T08:29:45;17.40;99.90
20370;DHT22;10344;47.592;9.600;2023-04-24T08:32:11;16.30;99.90
20370;DHT22;10344;47.592;9.600;2023-04-24T08:34:36;15.30;99.90
20370;DHT22;10344;47.592;9.600;2023-04-24T08:37:04;14.60;99.90
20370;DHT22;10344;47.592;9.600;2023-04-24T08:39:32;14.20;99.90
20370;DHT22;10344;47.592;9.600;2023-04-24T08:42:03;14.00;99.90
20370;DHT22;10344;47.592;9.600;2023-04-24T08:44:36;13.70;99.90
20370;DHT22;10344;47.592;9.600;2023-04-24T08:47:04;13.50;99.90
20370;DHT22;10344;47.592;9.600;2023-04-24T08:49:31;13.30;99.90
20370;DHT22;10344;47.592;9.600;2023-04-24T08:51:57;13.10;99.90
20370;DHT22;10344;47.592;9.600;2023-04-24T08:54:25;12.80;99.90
20370;DHT22;10344;47.592;9.600;2023-04-24T08:56:57;12.60;99.90
20370;DHT22;10344;47.592;9.600;2023-04-24T08:59:23;12.60;99.90
20370;DHT22;10344;47.592;9.600;2023-04-24T09:01:51;12.10;99.90
20370;DHT22;10344;47.592;9.600;2023-04-24T09:04:20;11.70;99.90
20370;DHT22;10344;47.592;9.600;2023-04-24T09:06:51;11.50;99.90
20370;DHT22;10344;47.592;9.600;2023-04-24T09:09:19;11.30;99.90
20370;DHT22;10344;47.592;9.600;2023-04-24T09:11:48;11.00;99.90
20370;DHT22;10344;47.592;9.600;2023-04-24T09:14:15;10.90;99.90
20370;DHT22;10344;47.592;9.600;2023-04-24T09:16:45;10.70;99.90
20370;DHT22;10344;47.592;9.600;2023-04-24T09:19:11;10.60;99.90
20370;DHT22;10344;47.592;9.600;2023-04-24T09:21:36;10.50;99.90
20370;DHT22;10344;47.592;9.600;2023-04-24T09:24:05;10.40;99.90
20370;DHT22;10344;47.592;9.600;2023-04-24T09:26:34;10.30;99.90
20370;DHT22;10344;47.592;9.600;2023-04-24T09:29:05;10.20;99.90
20370;DHT22;10344;47.592;9.600;2023-04-24T09:31:31;10.30;99.90
20370;DHT22;10344;47.592;9.600;2023-04-24T09:34:05;10.40;99.90
20370;DHT22;10344;47.592;9.600;2023-04-24T09:39:04;10.60;99.90
20370;DHT22;10344;47.592;9.600;2023-04-24T09:41:32;10.70;99.90
20370;DHT22;10344;47.592;9.600;2023-04-24T09:44:11;10.90;99.90
20370;DHT22;10344;47.592;9.600;2023-04-24T09:46:59;11.10;99.90
20370;DHT22;10344;47.592;9.600;2023-04-24T09:49:30;11.20;99.90
20370;DHT22;10344;47.592;9.600;2023-04-24T09:52:11;11.30;99.90
20370;DHT22;10344;47.592;9.600;2023-04-24T09:54:38;11.40;99.90
20370;DHT22;10344;47.592;9.600;2023-04-24T09:57:08;11.40;99.90
20370;DHT22;10344;47.592;9.600;2023-04-24T09:59:34;11.40;99.90
20370;DHT22;10344;47.592;9.600;2023-04-24T10:02:00;11.40;99.90
20370;DHT22;10344;47.592;9.600;2023-04-24T10:04:28;11.40;99.90
20370;DHT22;10344;47.592;9.600;2023-04-24T10:06:57;11.40;99.90
20370;DHT22;10344;47.592;9.600;2023-04-24T10:09:26;11.40;99.90
20370;DHT22;10344;47.592;9.600;2023-04-24T10:11:53;11.40;99.90
20370;DHT22;10344;47.592;9.600;2023-04-24T10:14:21;11.40;99.90
20370;DHT22;10344;47.592;9.600;2023-04-24T10:16:48;11.30;99.90
20370;DHT22;10344;47.592;9.600;2023-04-24T10:19:15;11.40;99.90
20370;DHT22;10344;47.592;9.600;2023-04-24T10:21:44;11.50;99.90
20370;DHT22;10344;47.592;9.600;2023-04-24T10:24:14;11.70;99.90
20370;DHT22;10344;47.592;9.600;2023-04-24T10:26:45;12.00;99.90
20370;DHT22;10344;47.592;9.600;2023-04-24T10:29:17;12.80;99.90
20370;DHT22;10344;47.592;9.600;2023-04-24T10:31:44;13.90;99.90
20370;DHT22;10344;47.592;9.600;2023-04-24T10:34:17;14.80;99.90
20370;DHT22;10344;47.592;9.600;2023-04-24T10:36:49;15.30;99.90
20370;DHT22;10344;47.592;9.600;2023-04-24T10:39:16;15.50;99.90
20370;DHT22;10344;47.592;9.600;2023-04-24T10:41:41;15.90;99.90
20370;DHT22;10344;47.592;9.600;2023-04-24T10:46:32;15.90;99.90
20370;DHT22;10344;47.592;9.600;2023-04-24T10:48:58;16.20;99.90
20370;DHT22;10344;47.592;9.600;2023-04-24T10:51:24;16.20;99.90
20370;DHT22;10344;47.592;9.600;2023-04-24T10:53:53;15.70;99.90
20370;DHT22;10344;47.592;9.600;2023-04-24T10:56:18;15.30;99.90
20370;DHT22;10344;47.592;9.600;2023-04-24T10:58:49;15.00;99.90
20370;DHT22;10344;47.592;9.600;2023-04-24T11:01:33;14.70;99.90
20370;DHT22;10344;47.592;9.600;2023-04-24T11:04:00;14.40;99.90
20370;DHT22;10344;47.592;9.600;2023-04-24T11:06:35;14.00;99.90
20370;DHT22;10344;47.592;9.600;2023-04-24T11:11:33;13.50;99.90
20370;DHT22;10344;47.592;9.600;2023-04-24T11:16:34;13.50;99.90
20370;DHT22;10344;47.592;9.600;2023-04-24T11:26:52;16.50;99.90
20370;DHT22;10344;47.592;9.600;2023-04-24T11:29:20;17.00;99.90
20370;DHT22;10344;47.592;9.600;2023-04-24T11:31:46;17.10;99.90
20370;DHT22;10344;47.592;9.600;2023-04-24T11:34:18;17.00;99.90
20370;DHT22;10344;47.592;9.600;2023-04-24T11:36:46;16.80;99.90
20370;DHT22;10344;47.592;9.600;2023-04-24T11:39:15;16.50;99.90
20370;DHT22;10344;47.592;9.600;2023-04-24T11:41:41;16.30;99.90
20370;DHT22;10344;47.592;9.600;2023-04-24T11:44:09;16.10;99.90
20370;DHT22;10344;47.592;9.600;2023-04-24T11:46:36;16.00;99.90
20370;DHT22;10344;47.592;9.600;2023-04-24T11:49:03;15.80;99.90
20370;DHT22;10344;47.592;9.600;2023-04-24T11:51:29;15.50;99.90
20370;DHT22;10344;47.592;9.600;2023-04-24T11:53:55;15.40;99.90
20370;DHT22;10344;47.592;9.600;2023-04-24T11:56:22;15.30;99.90
20370;DHT22;10344;47.592;9.600;2023-04-24T11:58:51;15.40;99.90
20370;DHT22;10344;47.592;9.600;2023-04-24T12:01:19;15.70;99.90
20370;DHT22;10344;47.592;9.600;2023-04-24T12:03:58;15.70;99.90
20370;DHT22;10344;47.592;9.600;2023-04-24T12:06:27;15.80;99.90
20370;DHT22;10344;47.592;9.600;2023-04-24T12:08:52;15.80;99.90
20370;DHT22;10344;47.592;9.600;2023-04-24T12:11:20;15.80;99.90
20370;DHT22;10344;47.592;9.600;2023-04-24T12:13:51;15.70;99.90
20370;DHT22;10344;47.592;9.600;2023-04-24T12:16:16;15.70;99.90
20370;DHT22;10344;47.592;9.600;2023-04-24T12:18:45;15.60;99.90
20370;DHT22;10344;47.592;9.600;2023-04-24T12:21:23;15.50;99.90
20370;DHT22;10344;47.592;9.600;2023-04-24T12:23:54;15.30;99.90
20370;DHT22;10344;47.592;9.600;2023-04-24T12:26:22;15.20;99.90
20370;DHT22;10344;47.592;9.600;2023-04-24T12:28:49;15.10;99.90
20370;DHT22;10344;47.592;9.600;2023-04-24T12:31:16;15.10;99.90
20370;DHT22;10344;47.592;9.600;2023-04-24T12:33:42;15.00;99.90
20370;DHT22;10344;47.592;9.600;2023-04-24T12:36:10;15.00;99.90
20370;DHT22;10344;47.592;9.600;2023-04-24T12:38:38;14.90;99.90
20370;DHT22;10344;47.592;9.600;2023-04-24T12:41:13;14.90;99.90
20370;DHT22;10344;47.592;9.600;2023-04-24T12:43:52;15.00;99.90
20370;DHT22;10344;47.592;9.600;2023-04-24T12:46:18;15.10;99.90
20370;DHT22;10344;47.592;9.600;2023-04-24T12:48:44;15.10;99.90
20370;DHT22;10344;47.592;9.600;2023-04-24T12:51:10;15.20;99.90
20370;DHT22;10344;47.592;9.600;2023-04-24T12:53:42;15.20;99.90
20370;DHT22;10344;47.592;9.600;2023-04-24T12:56:10;15.30;99.90
20370;DHT22;10344;47.592;9.600;2023-04-24T12:58:36;15.30;99.90
20370;DHT22;10344;47.592;9.600;2023-04-24T13:01:01;15.30;99.90
20370;DHT22;10344;47.592;9.600;2023-04-24T13:03:27;15.20;99.90
20370;DHT22;10344;47.592;9.600;2023-04-24T13:05:57;15.40;99.90
20370;DHT22;10344;47.592;9.600;2023-04-24T13:08:23;15.90;99.90
20370;DHT22;10344;47.592;9.600;2023-04-24T13:10:51;16.70;99.90
20370;DHT22;10344;47.592;9.600;2023-04-24T13:13:17;17.30;99.90
20370;DHT22;10344;47.592;9.600;2023-04-24T13:15:45;17.90;99.90
20370;DHT22;10344;47.592;9.600;2023-04-24T13:18:13;18.10;99.90
20370;DHT22;10344;47.592;9.600;2023-04-24T13:20:38;18.30;99.90
20370;DHT22;10344;47.592;9.600;2023-04-24T13:23:05;18.40;99.90
20370;DHT22;10344;47.592;9.600;2023-04-24T13:25:37;18.60;99.90
20370;DHT22;10344;47.592;9.600;2023-04-24T13:28:05;18.80;99.90
20370;DHT22;10344;47.592;9.600;2023-04-24T13:30:31;19.10;99.90
20370;DHT22;10344;47.592;9.600;2023-04-24T13:32:57;19.40;99.90
20370;DHT22;10344;47.592;9.600;2023-04-24T13:35:25;19.70;99.90
20370;DHT22;10344;47.592;9.600;2023-04-24T13:37:50;19.80;99.90
20370;DHT22;10344;47.592;9.600;2023-04-24T13:40:16;19.80;99.90
20370;DHT22;10344;47.592;9.600;2023-04-24T13:42:42;20.00;99.90
20370;DHT22;10344;47.592;9.600;2023-04-24T13:45:09;20.10;99.90
20370;DHT22;10344;47.592;9.600;2023-04-24T13:47:39;19.80;99.90
20370;DHT22;10344;47.592;9.600;2023-04-24T13:50:08;19.60;99.90
20370;DHT22;10344;47.592;9.600;2023-04-24T13:52:36;19.40;99.90
20370;DHT22;10344;47.592;9.600;2023-04-24T13:55:05;19.30;99.90
20370;DHT22;10344;47.592;9.600;2023-04-24T13:57:31;19.00;99.90
20370;DHT22;10344;47.592;9.600;2023-04-24T14:00:00;18.40;99.90
20370;DHT22;10344;47.592;9.600;2023-04-24T14:02:29;18.00;99.90
20370;DHT22;10344;47.592;9.600;2023-04-24T14:04:58;18.00;99.90
20370;DHT22;10344;47.592;9.600;2023-04-24T14:07:23;18.20;99.90
20370;DHT22;10344;47.592;9.600;2023-04-24T14:09:49;18.40;99.90
20370;DHT22;10344;47.592;9.600;2023-04-24T14:12:15;18.60;99.90
20370;DHT22;10344;47.592;9.600;2023-04-24T14:14:43;18.70;99.90
20370;DHT22;10344;47.592;9.600;2023-04-24T14:17:09;18.70;99.90
20370;DHT22;10344;47.592;9.600;2023-04-24T14:19:37;18.50;99.90
20370;DHT22;10344;47.592;9.600;2023-04-24T14:22:03;18.30;99.90
20370;DHT22;10344;47.592;9.600;2023-04-24T14:24:28;18.40;99.90
20370;DHT22;10344;47.592;9.600;2023-04-24T14:26:54;18.60;99.90
20370;DHT22;10344;47.592;9.600;2023-04-24T14:29:19;18.60;99.90
20370;DHT22;10344;47.592;9.600;2023-04-24T14:31:47;18.70;99.90
20370;DHT22;10344;47.592;9.600;2023-04-24T14:34:13;18.70;99.90
20370;DHT22;10344;47.592;9.600;2023-04-24T14:36:39;18.80;99.90
20370;DHT22;10344;47.592;9.600;2023-04-24T14:39:07;18.70;99.90
20370;DHT22;10344;47.592;9.600;2023-04-24T14:41:33;18.70;99.90
20370;DHT22;10344;47.592;9.600;2023-04-24T14:44:02;18.70;99.90
20370;DHT22;10344;47.592;9.600;2023-04-24T14:46:28;18.70;99.90
20370;DHT22;10344;47.592;9.600;2023-04-24T14:48:59;18.60;99.90
20370;DHT22;10344;47.592;9.600;2023-04-24T14:51:24;18.40;99.90
20370;DHT22;10344;47.592;9.600;2023-04-24T14:53:51;18.20;99.90
20370;DHT22;10344;47.592;9.600;2023-04-24T14:56:17;18.00;99.90
20370;DHT22;10344;47.592;9.600;2023-04-24T14:58:43;18.20;99.90
20370;DHT22;10344;47.592;9.600;2023-04-24T15:01:11;18.40;99.90
20370;DHT22;10344;47.592;9.600;2023-04-24T15:03:36;18.40;99.90
20370;DHT22;10344;47.592;9.600;2023-04-24T15:06:02;18.40;99.90
20370;DHT22;10344;47.592;9.600;2023-04-24T15:08:30;18.10;99.90
20370;DHT22;10344;47.592;9.600;2023-04-24T15:10:55;17.80;99.90
20370;DHT22;10344;47.592;9.600;2023-04-24T15:13:21;17.40;99.90
20370;DHT22;10344;47.592;9.600;2023-04-24T15:15:47;17.40;99.90
20370;DHT22;10344;47.592;9.600;2023-04-24T15:18:13;17.50;99.90
20370;DHT22;10344;47.592;9.600;2023-04-24T15:20:38;17.80;99.90
20370;DHT22;10344;47.592;9.600;2023-04-24T15:23:05;17.80;99.90
20370;DHT22;10344;47.592;9.600;2023-04-24T15:25:33;17.80;99.90
20370;DHT22;10344;47.592;9.600;2023-04-24T15:27:59;17.80;99.90
20370;DHT22;10344;47.592;9.600;2023-04-24T15:30:25;17.70;99.90
20370;DHT22;10344;47.592;9.600;2023-04-24T15:32:51;17.40;99.90
20370;DHT22;10344;47.592;9.600;2023-04-24T15:35:19;17.10;99.90
20370;DHT22;10344;47.592;9.600;2023-04-24T15:37:47;16.70;99.90
20370;DHT22;10344;47.592;9.600;2023-04-24T15:40:13;16.30;99.90
20370;DHT22;10344;47.592;9.600;2023-04-24T15:42:41;16.10;99.90
20370;DHT22;10344;47.592;9.600;2023-04-24T15:45:08;16.00;99.90
20370;DHT22;10344;47.592;9.600;2023-04-24T15:47:34;16.00;99.90
20370;DHT22;10344;47.592;9.600;2023-04-24T15:50:00;16.10;99.90